Latest Weather Observations for Swan Island

IDT60801

Issued at 8:02 am EST Friday 23 June 2017 (issued every 30 minutes, with the page automatically refreshed every 10 minutes)

About weather observations | Map of weather stations | Latest weather observations for TAS | Other Formats
Station Details ID: 092123 Name: SWAN ISLAND Lat: -40.73 Lon: 148.12 Height: 15.0 m
Data from the previous 72 hours. | See also: Recent months at Swan Island
Date/Time
EST
Temp
°C
App
Temp
°C
Dew
Point
°C
Rel
Hum
%
Delta-T
°C
Wind Press
QNH
hPa
Press
MSL
hPa
Rain since
9am
mm
Dir  Spd
km/h
Gust
km/h
Spd
kts
Gust
kts
23/07:30am 13.8 6.6 10.6 81 1.7 WNW 39 52 21 28 1013.2 1013.2 0.0
23/07:00am 13.9 6.0 10.9 82 1.6 WNW 43 56 23 30 1013.2 1013.2 0.0
23/06:30am 13.7 5.8 10.7 82 1.6 WNW 43 54 23 29 1013.1 1013.1 0.0
23/06:00am 13.8 6.2 10.6 81 1.7 WNW 41 56 22 30 1013.3 1013.3 0.0
23/05:30am 13.7 7.7 10.7 82 1.6 WNW 33 46 18 25 1013.6 1013.6 0.0
23/05:00am 13.7 6.9 10.7 82 1.6 WNW 37 46 20 25 1013.8 1013.8 0.0
23/04:30am 13.6 6.5 10.8 83 1.5 WNW 39 50 21 27 1014.2 1014.2 0.0
23/04:00am 13.7 7.9 10.9 83 1.5 NW 32 46 17 25 1014.5 1014.5 0.0
23/03:30am 13.5 7.5 10.1 80 1.8 NW 32 46 17 25 1014.9 1014.9 0.0
23/03:00am 13.3 7.0 9.7 79 1.8 WNW 33 44 18 24 1015.5 1015.5 0.0
23/02:30am 13.2 7.1 9.8 80 1.7 WNW 32 43 17 23 1015.8 1015.8 0.0
23/02:00am 13.1 7.3 9.4 78 1.9 WNW 30 39 16 21 1016.2 1016.2 0.0
23/01:30am 13.0 6.7 9.1 77 2.0 WNW 32 41 17 22 1016.5 1016.5 0.0
23/01:00am 13.0 6.5 9.1 77 2.0 WNW 33 43 18 23 1016.9 1016.9 0.0
23/12:48am 13.0 7.6 9.6 80 1.7 WNW 28 39 15 21 1017.1 1017.1 0.0
23/12:30am 11.9 8.8 8.7 81 1.6 W 15 20 8 11 1017.6 1017.6 0.0
23/12:00am 12.7 7.9 8.8 77 1.9 W 24 41 13 22 1018.0 1018.0 0.0
 
Date/Time
EST
Temp
°C
App
Temp
°C
Dew
Point
°C
Rel
Hum
%
Delta-T
°C
Wind Press
QNH
hPa
Press
MSL
hPa
Rain since
9am
mm
Dir  Spd
km/h
Gust
km/h
Spd
kts
Gust
kts
22/11:30pm 13.0 7.2 9.4 79 1.8 WNW 30 41 16 22 1018.3 1018.3 0.0
22/11:00pm 12.1 7.7 9.1 82 1.5 WNW 22 30 12 16 1018.9 1018.9 0.0
22/10:30pm 11.5 7.3 8.2 80 1.6 WNW 20 28 11 15 1019.4 1019.4 0.0
22/10:00pm 11.6 6.9 7.9 78 1.8 WNW 22 32 12 17 1019.7 1019.7 0.0
22/09:30pm 11.9 6.7 7.4 74 2.2 WNW 24 35 13 19 1019.9 1019.9 0.0
22/09:00pm 12.0 6.4 7.3 73 2.3 NW 26 37 14 20 1020.1 1020.1 0.0
22/08:30pm 11.5 7.0 6.8 73 2.2 W 20 30 11 16 1020.5 1020.5 0.0
22/08:00pm 11.9 6.6 6.8 71 2.4 WNW 24 32 13 17 1020.8 1020.8 0.0
22/07:30pm 11.7 6.7 6.6 71 2.4 WNW 22 32 12 17 1021.1 1021.1 0.0
22/07:00pm 11.3 5.6 6.8 74 2.1 NW 26 33 14 18 1021.2 1021.2 0.0
22/06:30pm 11.6 6.3 6.7 72 2.3 NW 24 33 13 18 1021.3 1021.3 0.0
22/06:00pm 11.4 5.6 4.2 61 3.2 WNW 24 33 13 18 1021.5 1021.5 0.0
22/05:30pm 11.1 5.5 3.6 60 3.3 WNW 22 33 12 18 1021.9 1021.9 0.0
22/05:00pm 11.3 6.3 6.6 73 2.2 NW 22 35 12 19 1022.2 1022.2 0.0
22/04:30pm 11.3 6.3 4.7 64 3.0 WNW 20 32 11 17 1022.3 1022.3 0.0
22/04:00pm 11.3 6.6 5.0 65 2.9 W 19 28 10 15 1022.3 1022.3 0.0
22/03:30pm 11.8 6.8 4.5 61 3.3 WNW 20 30 11 16 1022.6 1022.6 0.0
22/03:00pm 11.6 6.1 4.1 60 3.3 WNW 22 33 12 18 1022.7 1022.7 0.0
22/02:30pm 11.8 6.8 4.5 61 3.3 WNW 20 28 11 15 1023.1 1023.1 0.0
22/02:00pm 11.9 7.1 4.4 60 3.4 W 19 30 10 16 1023.5 1023.5 0.0
22/01:30pm 12.0 6.8 5.4 64 3.1 W 22 35 12 19 1024.0 1024.0 0.0
22/01:00pm 12.2 7.4 4.9 61 3.3 W 19 28 10 15 1024.3 1024.3 0.0
22/12:30pm 12.0 7.2 4.5 60 3.4 WNW 19 24 10 13 1024.9 1024.9 0.0
22/12:00pm 11.9 7.0 4.2 59 3.4 WNW 19 26 10 14 1025.3 1025.3 0.0
22/11:30am 11.6 7.0 3.9 59 3.4 WNW 17 26 9 14 1025.8 1025.8 0.0
22/11:00am 11.6 7.0 3.9 59 3.4 WNW 17 26 9 14 1026.2 1026.2 0.0
22/10:30am 11.7 6.2 4.0 59 3.4 NW 22 30 12 16 1026.5 1026.5 0.0
22/10:00am 11.8 6.6 5.4 65 2.9 NW 22 26 12 14 1026.7 1026.7 0.0
22/09:30am 11.5 7.4 6.2 70 2.5 N 17 22 9 12 1026.8 1026.8 0.0
22/09:00am 11.9 8.2 6.2 68 2.7 NNW 15 20 8 11 1026.8 1026.8 0.0
22/08:30am 11.5 7.9 6.6 72 2.3 N 15 19 8 10 1027.0 1027.0 0.0
22/08:00am 10.1 8.5 6.3 77 1.8 S 4 4 2 2 1027.1 1027.1 0.0
22/07:30am 9.9 8.6 5.9 76 1.8 S 2 2 1 1 1027.3 1027.3 0.0
22/07:00am 9.8 8.1 5.8 76 1.8 S 4 6 2 3 1027.1 1027.1 0.0
22/06:30am 9.8 8.1 6.0 77 1.8 S 4 4 2 2 1027.2 1027.2 0.0
22/06:00am 9.6 7.5 5.8 77 1.7 S 6 6 3 3 1027.3 1027.3 0.0
22/05:30am 9.6 7.3 5.8 77 1.7 S 7 11 4 6 1027.3 1027.3 0.0
22/05:00am 9.3 6.6 5.7 78 1.6 S 9 13 5 7 1027.1 1027.1 0.0
22/04:30am 9.4 7.1 5.8 78 1.6 S 7 9 4 5 1027.2 1027.2 0.0
22/04:00am 9.3 7.0 5.5 77 1.7 S 7 9 4 5 1027.1 1027.1 0.0
22/03:30am 9.4 7.1 5.6 77 1.7 S 7 9 4 5 1027.3 1027.3 0.0
22/03:00am 9.2 6.8 5.4 77 1.7 SSW 7 11 4 6 1027.6 1027.6 0.0
22/02:30am 9.3 6.5 5.3 76 1.8 SSW 9 11 5 6 1027.8 1027.8 0.0
22/02:00am 9.3 6.4 4.9 74 2.0 SW 9 9 5 5 1028.0 1028.0 0.0
22/01:30am 10.5 8.2 4.6 67 2.6 WSW 6 9 3 5 1028.1 1028.1 0.0
22/01:00am 11.4 8.1 4.8 64 3.0 NW 11 15 6 8 1028.1 1028.1 0.0
22/12:30am 11.6 7.9 4.6 62 3.2 ENE 13 19 7 10 1028.2 1028.2 0.0
22/12:00am 11.4 7.3 4.4 62 3.1 E 15 19 8 10 1028.5 1028.5 0.0
 
Date/Time
EST
Temp
°C
App
Temp
°C
Dew
Point
°C
Rel
Hum
%
Delta-T
°C
Wind Press
QNH
hPa
Press
MSL
hPa
Rain since
9am
mm
Dir  Spd
km/h
Gust
km/h
Spd
kts
Gust
kts
21/11:30pm 11.5 7.2 5.2 65 2.9 E 17 20 9 11 1028.5 1028.5 0.0
21/11:00pm 11.4 7.0 4.8 64 3.0 E 17 22 9 12 1028.6 1028.6 0.0
21/10:30pm 11.3 6.3 4.5 63 3.1 ESE 20 24 11 13 1028.8 1028.8 0.0
21/10:00pm 11.3 6.3 4.5 63 3.0 ESE 20 26 11 14 1028.6 1028.6 0.0
21/09:30pm 11.2 5.5 4.7 64 2.9 ESE 24 30 13 16 1028.6 1028.6 0.0
21/09:00pm 11.4 6.1 5.1 65 2.9 E 22 28 12 15 1028.6 1028.6 0.0
21/08:30pm 11.4 6.4 4.8 64 3.0 ESE 20 26 11 14 1028.5 1028.5 0.0
21/08:00pm 11.6 6.7 4.3 61 3.3 E 19 24 10 13 1028.6 1028.6 0.0
21/07:30pm 11.7 7.3 4.9 63 3.1 E 17 22 9 12 1028.6 1028.6 0.0
21/07:00pm 11.7 6.9 4.7 62 3.2 E 19 22 10 12 1028.3 1028.3 0.0
21/06:30pm 11.8 7.8 4.8 62 3.2 E 15 22 8 12 1028.1 1028.1 0.0
21/06:00pm 11.8 7.4 4.8 62 3.2 ENE 17 20 9 11 1027.9 1027.9 0.0
21/05:30pm 11.5 7.7 4.0 60 3.4 NE 13 19 7 10 1027.6 1027.6 0.0
21/05:00pm 11.1 7.7 4.1 62 3.1 N 11 17 6 9 1027.1 1027.1 0.0
21/04:30pm 11.2 8.1 3.5 59 3.4 N 9 13 5 7 1027.0 1027.0 0.0
21/04:00pm 11.9 8.4 3.4 56 3.7 NNW 11 13 6 7 1026.8 1026.8 0.0
21/03:30pm 12.1 8.6 3.6 56 3.8 N 11 15 6 8 1026.5 1026.5 0.0
21/03:00pm 12.1 8.9 3.3 55 3.9 N 9 11 5 6 1026.1 1026.1 0.0
21/02:30pm 12.0 9.2 3.3 55 3.8 N 7 9 4 5 1025.9 1025.9 0.0
21/02:00pm 13.1 10.4 2.9 50 4.5 NNW 6 9 3 5 1025.7 1025.7 0.0
21/01:30pm 13.1 10.8 2.6 49 4.6 NE 4 7 2 4 1025.6 1025.6 0.0
21/01:00pm 13.1 10.7 2.1 47 4.7 ENE 4 6 2 3 1025.7 1025.7 0.0
21/12:30pm 13.3 11.0 2.8 49 4.6 NNE 4 6 2 3 1025.7 1025.7 0.0
21/12:00pm 12.4 9.7 3.9 56 3.8 NW 7 11 4 6 1025.8 1025.8 0.0
21/11:30am 13.1 10.6 4.0 54 4.1 SSE 6 13 3 7 1026.0 1026.0 0.0
21/11:00am 11.6 8.8 3.4 57 3.6 SW 7 13 4 7 1026.3 1026.3 0.0
21/10:30am 11.3 8.2 3.8 60 3.3 SW 9 15 5 8 1026.1 1026.1 0.0
21/10:00am 10.6 7.5 3.4 61 3.1 WSW 9 15 5 8 1025.9 1025.9 0.0
21/09:30am 10.3 6.1 3.8 64 2.9 WSW 15 20 8 11 1025.4 1025.4 0.0
21/09:00am 9.9 5.7 3.9 66 2.6 WSW 15 26 8 14 1024.9 1024.9 0.0
21/08:30am 9.5 5.7 3.9 68 2.5 WSW 13 24 7 13 1024.3 1024.3 0.0
21/08:00am 9.1 4.9 3.7 69 2.3 WSW 15 24 8 13 1023.8 1023.8 0.0
21/07:30am 9.1 4.5 3.9 70 2.3 WSW 17 26 9 14 1023.3 1023.3 0.0
21/07:00am 9.1 4.5 3.7 69 2.3 WSW 17 24 9 13 1022.7 1022.7 0.0
21/06:30am 9.6 4.5 4.2 69 2.4 WSW 20 30 11 16 1022.4 1022.4 0.0
21/06:00am 9.2 5.6 4.8 74 2.0 WSW 13 19 7 10 1021.7 1021.7 0.0
21/05:30am 9.4 5.8 4.8 73 2.1 WSW 13 19 7 10 1021.2 1021.2 0.0
21/05:00am 10.5 5.8 5.1 69 2.4 WSW 19 28 10 15 1020.7 1020.7 0.0
21/04:30am 11.1 5.8 5.2 67 2.7 WSW 22 33 12 18 1020.2 1020.2 0.0
21/04:00am 11.7 5.2 6.4 70 2.5 W 30 44 16 24 1019.8 1019.8 0.0
21/03:41am 12.0 5.1 6.3 68 2.7 W 32 52 17 28 1019.7 1019.7 0.0
21/03:30am 12.0 5.2 6.9 71 2.4 W 32 48 17 26 1019.6 1019.6 0.0
21/03:00am 12.2 5.8 6.9 70 2.5 W 30 48 16 26 1019.3 1019.3 0.0
21/02:56am 12.3 4.9 6.8 69 2.6 W 35 54 19 29 1019.2 1019.2 0.0
21/02:30am 12.5 4.1 7.4 71 2.5 W 41 54 22 29 1018.3 1018.3 0.0
21/02:00am 12.6 4.2 7.3 70 2.6 W 41 61 22 33 1017.3 1017.3 0.0
21/01:30am 12.8 4.4 7.5 70 2.6 W 41 63 22 34 1017.1 1017.1 0.0
21/01:00am 13.2 4.4 7.4 68 2.8 W 43 63 23 34 1016.8 1016.8 0.0
21/12:30am 13.5 5.7 8.4 71 2.5 W 39 65 21 35 1016.7 1016.7 0.0
21/12:00am 13.9 4.6 10.7 81 1.7 WNW 50 74 27 40 1016.9 1016.9 0.0
 
Date/Time
EST
Temp
°C
App
Temp
°C
Dew
Point
°C
Rel
Hum
%
Delta-T
°C
Wind Press
QNH
hPa
Press
MSL
hPa
Rain since
9am
mm
Dir  Spd
km/h
Gust
km/h
Spd
kts
Gust
kts
20/11:34pm 14.5 5.4 11.3 81 1.7 WNW 50 70 27 38 1016.4 1016.4 0.0
20/11:30pm 14.5 5.0 11.3 81 1.7 WNW 52 70 28 38 1016.5 1016.5 0.0
20/11:02pm 14.4 6.2 11.6 83 1.5 WNW 46 67 25 36 1016.8 1016.8 0.0
20/11:00pm 14.4 6.2 11.6 83 1.5 WNW 46 63 25 34 1016.9 1016.9 0.0
20/10:38pm 14.3 5.7 11.8 85 1.3 NW 48 69 26 37 1017.0 1017.0 0.0
20/10:30pm 14.1 6.3 11.8 86 1.2 WNW 44 61 24 33 1017.1 1017.1 0.0
20/10:10pm 13.8 4.8 11.7 87 1.1 NW 50 69 27 37 1017.2 1017.2 0.0
20/10:00pm 13.6 3.8 11.3 86 1.2 NW 54 69 29 37 1017.1 1017.1 0.0
20/09:35pm 14.0 5.3 11.2 83 1.5 WNW 48 67 26 36 1017.7 1017.7 0.0
20/09:30pm 14.0 4.9 11.3 84 1.4 WNW 50 67 27 36 1017.7 1017.7 0.0
20/09:03pm 14.1 5.8 11.4 84 1.4 NW 46 65 25 35 1017.8 1017.8 0.0
20/09:00pm 14.1 5.8 11.4 84 1.4 NW 46 63 25 34 1017.8 1017.8 0.0
20/08:59pm 14.2 6.3 11.5 84 1.4 NW 44 63 24 34 1017.9 1017.9 0.0
20/08:30pm 13.9 4.8 11.1 83 1.5 NW 50 67 27 36 1017.9 1017.9 0.0
20/08:21pm 14.0 4.9 11.2 83 1.5 NW 50 69 27 37 1018.2 1018.2 0.0
20/08:00pm 13.9 5.2 11.2 84 1.4 NW 48 61 26 33 1018.4 1018.4 0.0
20/07:30pm 13.8 5.4 11.0 83 1.5 NW 46 61 25 33 1019.0 1019.0 0.0
20/07:05pm 13.8 6.0 11.0 83 1.5 NW 43 67 23 36 1019.0 1019.0 0.0
20/07:00pm 13.8 6.3 11.0 83 1.5 NW 41 57 22 31 1019.0 1019.0 0.0
20/06:48pm 13.9 6.5 11.1 83 1.5 NW 41 59 22 32 1019.2 1019.2 0.0
20/06:30pm 13.7 6.5 10.7 82 1.6 NW 39 54 21 29 1019.2 1019.2 0.0
20/06:00pm 13.6 5.6 10.6 82 1.6 NW 43 59 23 32 1019.2 1019.2 0.0
20/05:48pm 13.4 5.2 10.4 82 1.6 NW 44 63 24 34 1019.3 1019.3 0.0
20/05:30pm 13.6 5.5 10.6 82 1.6 NW 44 56 24 30 1019.0 1019.0 0.0
20/05:00pm 13.6 5.9 10.0 79 1.9 NW 41 57 22 31 1019.5 1019.5 0.0
20/04:39pm 13.6 6.9 9.8 78 2.0 NW 35 56 19 30 1019.5 1019.5 0.0
20/04:30pm 13.7 5.9 9.7 77 2.1 NW 41 54 22 29 1019.5 1019.5 0.0
20/04:00pm 13.8 6.1 8.8 72 2.5 WNW 39 54 21 29 1019.6 1019.6 0.0
20/03:30pm 13.8 7.2 10.0 78 2.0 WNW 35 52 19 28 1019.8 1019.8 0.0
20/03:27pm 13.9 7.7 10.1 78 2.0 WNW 33 52 18 28 1019.8 1019.8 0.0
20/03:00pm 14.0 7.9 10.6 80 1.8 NW 33 50 18 27 1020.0 1020.0 0.0
20/02:30pm 14.1 6.5 10.5 79 1.9 NW 41 56 22 30 1020.0 1020.0 0.0
20/02:07pm 14.3 8.2 10.5 78 2.0 NW 33 54 18 29 1020.2 1020.2 0.0
20/02:00pm 14.2 8.1 10.4 78 2.0 NW 33 46 18 25 1020.3 1020.3 0.0
20/01:30pm 14.8 8.5 11.0 78 2.0 NW 35 48 19 26 1020.6 1020.6 0.0
20/01:00pm 14.7 7.9 10.5 76 2.2 NW 37 50 20 27 1021.0 1021.0 0.0
20/12:30pm 14.9 7.2 10.3 74 2.4 NW 41 52 22 28 1021.5 1021.5 0.0
20/12:00pm 14.9 7.5 9.7 71 2.7 NW 39 54 21 29 1021.9 1021.9 0.0
20/11:52am 15.1 8.4 9.7 70 2.8 NW 35 54 19 29 1022.1 1022.1 0.0
20/11:30am 15.1 7.6 9.5 69 2.9 NW 39 50 21 27 1022.4 1022.4 0.0
20/11:00am 15.1 9.1 10.1 72 2.6 NW 32 41 17 22 1023.0 1023.0 0.0
20/10:30am 14.7 9.0 9.7 72 2.6 NW 30 41 16 22 1023.4 1023.4 0.0
20/10:00am 14.6 9.6 9.4 71 2.7 WNW 26 33 14 18 1023.6 1023.6 0.0
20/09:30am 14.9 9.1 9.3 69 2.9 WNW 30 41 16 22 1023.7 1023.7 0.0
20/09:00am 14.8 8.6 9.4 70 2.8 WNW 32 37 17 20 1023.8 1023.8 0.0
20/08:30am 13.9 7.9 10.1 78 2.0 WNW 32 41 17 22 1024.0 1024.0 0.0

Other Formats:

Comma delimited format used in spreadsheet applications
http://www.bom.gov.au/fwo/IDT60801/IDT60801.95985.axf

JavaScript Object Notation format (JSON) in row-major order
http://www.bom.gov.au/fwo/IDT60801/IDT60801.95985.json